sensor_id;sensor_type;location;lat;lon;timestamp;pressure;altitude;pressure_sealevel;temperature;humidity
61573;BME280;47465;43.094;12.434;2023-03-03T00:00:50;98509.97;;;7.05;98.98
61573;BME280;47465;43.094;12.434;2023-03-03T00:03:18;98536.13;;;7.22;98.54
61573;BME280;47465;43.094;12.434;2023-03-03T00:05:44;98500.28;;;7.05;97.87
61573;BME280;47465;43.094;12.434;2023-03-03T00:08:13;98523.88;;;7.17;98.00
61573;BME280;47465;43.094;12.434;2023-03-03T00:10:39;98508.19;;;7.07;98.16
61573;BME280;47465;43.094;12.434;2023-03-03T00:13:06;98498.59;;;7.01;97.86
61573;BME280;47465;43.094;12.434;2023-03-03T00:15:37;98492.50;;;6.96;98.06
61573;BME280;47465;43.094;12.434;2023-03-03T00:18:12;98496.00;;;6.98;97.73
61573;BME280;47465;43.094;12.434;2023-03-03T00:20:47;98509.16;;;7.03;97.79
61573;BME280;47465;43.094;12.434;2023-03-03T00:23:19;98507.31;;;7.08;97.47
61573;BME280;47465;43.094;12.434;2023-03-03T00:25:50;98511.63;;;7.12;97.26
61573;BME280;47465;43.094;12.434;2023-03-03T00:28:19;98520.34;;;7.18;97.11
61573;BME280;47465;43.094;12.434;2023-03-03T00:30:47;98493.31;;;7.01;96.71
61573;BME280;47465;43.094;12.434;2023-03-03T00:33:21;98506.53;;;7.03;97.20
61573;BME280;47465;43.094;12.434;2023-03-03T00:35:49;98510.13;;;6.97;97.83
61573;BME280;47465;43.094;12.434;2023-03-03T00:38:17;98510.09;;;6.98;97.94
61573;BME280;47465;43.094;12.434;2023-03-03T00:40:44;98500.56;;;6.90;98.22
61573;BME280;47465;43.094;12.434;2023-03-03T00:43:18;98512.03;;;6.87;98.65
61573;BME280;47465;43.094;12.434;2023-03-03T00:45:45;98491.19;;;6.69;99.15
61573;BME280;47465;43.094;12.434;2023-03-03T00:48:23;98519.22;;;6.79;99.45
61573;BME280;47465;43.094;12.434;2023-03-03T00:50:51;98491.31;;;6.61;99.66
61573;BME280;47465;43.094;12.434;2023-03-03T00:53:20;98519.25;;;6.76;99.90
61573;BME280;47465;43.094;12.434;2023-03-03T00:55:48;98481.75;;;6.54;100.00
61573;BME280;47465;43.094;12.434;2023-03-03T00:58:14;98498.25;;;6.68;100.00
61573;BME280;47465;43.094;12.434;2023-03-03T01:00:41;98481.69;;;6.57;100.00
61573;BME280;47465;43.094;12.434;2023-03-03T01:03:09;98509.56;;;6.76;100.00
61573;BME280;47465;43.094;12.434;2023-03-03T01:05:37;98477.38;;;6.53;100.00
61573;BME280;47465;43.094;12.434;2023-03-03T01:08:04;98504.28;;;6.76;100.00
61573;BME280;47465;43.094;12.434;2023-03-03T01:10:34;98476.31;;;6.63;99.81
61573;BME280;47465;43.094;12.434;2023-03-03T01:13:03;98460.44;;;6.65;100.00
61573;BME280;47465;43.094;12.434;2023-03-03T01:15:29;98470.84;;;6.75;99.68
61573;BME280;47465;43.094;12.434;2023-03-03T01:17:55;98486.41;;;6.92;99.50
61573;BME280;47465;43.094;12.434;2023-03-03T01:20:24;98488.97;;;6.98;99.24
61573;BME280;47465;43.094;12.434;2023-03-03T01:22:51;98456.53;;;6.87;98.64
61573;BME280;47465;43.094;12.434;2023-03-03T01:25:17;98452.97;;;6.90;98.24
61573;BME280;47465;43.094;12.434;2023-03-03T01:27:44;98466.00;;;7.01;98.31
61573;BME280;47465;43.094;12.434;2023-03-03T01:30:11;98472.09;;;7.04;98.19
61573;BME280;47465;43.094;12.434;2023-03-03T01:32:37;98474.72;;;7.07;98.66
61573;BME280;47465;43.094;12.434;2023-03-03T01:35:04;98477.22;;;7.13;98.59
61573;BME280;47465;43.094;12.434;2023-03-03T01:37:30;98458.13;;;6.96;98.82
61573;BME280;47465;43.094;12.434;2023-03-03T01:39:56;98465.97;;;7.02;99.02
61573;BME280;47465;43.094;12.434;2023-03-03T01:42:22;98477.28;;;7.10;99.30
61573;BME280;47465;43.094;12.434;2023-03-03T01:45:16;98482.56;;;7.10;99.90
61573;BME280;47465;43.094;12.434;2023-03-03T01:47:46;98466.91;;;6.98;100.00
61573;BME280;47465;43.094;12.434;2023-03-03T01:50:17;98470.50;;;6.95;100.00
61573;BME280;47465;43.094;12.434;2023-03-03T01:52:45;98475.75;;;6.97;100.00
61573;BME280;47465;43.094;12.434;2023-03-03T01:55:16;98454.69;;;6.92;100.00
61573;BME280;47465;43.094;12.434;2023-03-03T01:57:49;98459.97;;;6.92;100.00
61573;BME280;47465;43.094;12.434;2023-03-03T02:00:19;98452.16;;;6.86;100.00
61573;BME280;47465;43.094;12.434;2023-03-03T02:02:45;98449.59;;;6.80;100.00
61573;BME280;47465;43.094;12.434;2023-03-03T02:05:12;98456.59;;;6.84;100.00
61573;BME280;47465;43.094;12.434;2023-03-03T02:07:39;98456.69;;;6.76;100.00
61573;BME280;47465;43.094;12.434;2023-03-03T02:10:07;98452.44;;;6.69;100.00
61573;BME280;47465;43.094;12.434;2023-03-03T02:12:37;98444.50;;;6.71;100.00
61573;BME280;47465;43.094;12.434;2023-03-03T02:15:15;98454.91;;;6.78;100.00
61573;BME280;47465;43.094;12.434;2023-03-03T02:17:42;98435.72;;;6.67;100.00
61573;BME280;47465;43.094;12.434;2023-03-03T02:20:11;98444.53;;;6.68;100.00
61573;BME280;47465;43.094;12.434;2023-03-03T02:22:43;98443.75;;;6.61;100.00
61573;BME280;47465;43.094;12.434;2023-03-03T02:25:16;98453.38;;;6.65;100.00
61573;BME280;47465;43.094;12.434;2023-03-03T02:27:47;98464.78;;;6.69;100.00
61573;BME280;47465;43.094;12.434;2023-03-03T02:30:16;98466.56;;;6.68;100.00
61573;BME280;47465;43.094;12.434;2023-03-03T02:32:42;98463.94;;;6.65;100.00
61573;BME280;47465;43.094;12.434;2023-03-03T02:35:30;98463.16;;;6.60;100.00
61573;BME280;47465;43.094;12.434;2023-03-03T02:38:06;98471.03;;;6.63;100.00
61573;BME280;47465;43.094;12.434;2023-03-03T02:40:48;98446.72;;;6.43;100.00
61573;BME280;47465;43.094;12.434;2023-03-03T02:43:21;98431.81;;;6.37;100.00
61573;BME280;47465;43.094;12.434;2023-03-03T02:45:50;98458.91;;;6.51;100.00
61573;BME280;47465;43.094;12.434;2023-03-03T02:48:16;98430.97;;;6.35;100.00
61573;BME280;47465;43.094;12.434;2023-03-03T02:50:42;98446.72;;;6.40;100.00
61573;BME280;47465;43.094;12.434;2023-03-03T02:53:08;98429.31;;;6.29;100.00
61573;BME280;47465;43.094;12.434;2023-03-03T02:55:33;98445.94;;;6.36;100.00
61573;BME280;47465;43.094;12.434;2023-03-03T02:57:59;98438.03;;;6.34;100.00
61573;BME280;47465;43.094;12.434;2023-03-03T03:00:27;98437.22;;;6.29;100.00
61573;BME280;47465;43.094;12.434;2023-03-03T03:02:53;98425.50;;;6.46;100.00
61573;BME280;47465;43.094;12.434;2023-03-03T03:05:18;98442.28;;;6.43;100.00
61573;BME280;47465;43.094;12.434;2023-03-03T03:07:44;98444.75;;;6.54;100.00
61573;BME280;47465;43.094;12.434;2023-03-03T03:10:10;98445.78;;;6.45;100.00
61573;BME280;47465;43.094;12.434;2023-03-03T03:12:36;98438.00;;;6.36;100.00
61573;BME280;47465;43.094;12.434;2023-03-03T03:15:03;98452.88;;;6.42;100.00
61573;BME280;47465;43.094;12.434;2023-03-03T03:17:30;98420.50;;;6.29;100.00
61573;BME280;47465;43.094;12.434;2023-03-03T03:19:56;98431.00;;;6.33;100.00
61573;BME280;47465;43.094;12.434;2023-03-03T03:22:22;98414.31;;;6.30;100.00
61573;BME280;47465;43.094;12.434;2023-03-03T03:24:48;98418.75;;;6.28;100.00
61573;BME280;47465;43.094;12.434;2023-03-03T03:27:14;98428.28;;;6.38;100.00
61573;BME280;47465;43.094;12.434;2023-03-03T03:29:40;98429.16;;;6.38;100.00
61573;BME280;47465;43.094;12.434;2023-03-03T03:32:06;98410.69;;;6.37;100.00
61573;BME280;47465;43.094;12.434;2023-03-03T03:34:33;98429.94;;;6.45;100.00
61573;BME280;47465;43.094;12.434;2023-03-03T03:36:59;98435.31;;;6.39;100.00
61573;BME280;47465;43.094;12.434;2023-03-03T03:39:28;98431.91;;;6.31;100.00
61573;BME280;47465;43.094;12.434;2023-03-03T03:41:54;98450.28;;;6.38;100.00
61573;BME280;47465;43.094;12.434;2023-03-03T03:44:20;98449.53;;;6.30;100.00
61573;BME280;47465;43.094;12.434;2023-03-03T03:46:48;98436.47;;;6.21;100.00
61573;BME280;47465;43.094;12.434;2023-03-03T03:49:14;98420.72;;;6.15;100.00
61573;BME280;47465;43.094;12.434;2023-03-03T03:51:41;98417.22;;;6.11;100.00
61573;BME280;47465;43.094;12.434;2023-03-03T03:54:07;98404.09;;;6.07;100.00
61573;BME280;47465;43.094;12.434;2023-03-03T03:56:33;98433.91;;;6.16;100.00
61573;BME280;47465;43.094;12.434;2023-03-03T03:58:59;98419.88;;;6.11;100.00
61573;BME280;47465;43.094;12.434;2023-03-03T04:01:25;98403.13;;;6.14;100.00
61573;BME280;47465;43.094;12.434;2023-03-03T04:03:51;98444.91;;;6.45;100.00
61573;BME280;47465;43.094;12.434;2023-03-03T04:06:17;98435.31;;;6.39;100.00
61573;BME280;47465;43.094;12.434;2023-03-03T04:08:45;98400.44;;;6.17;100.00
61573;BME280;47465;43.094;12.434;2023-03-03T04:11:10;98419.44;;;6.41;100.00
61573;BME280;47465;43.094;12.434;2023-03-03T04:13:36;98430.78;;;6.47;100.00
61573;BME280;47465;43.094;12.434;2023-03-03T04:16:03;98429.91;;;6.47;100.00
61573;BME280;47465;43.094;12.434;2023-03-03T04:18:28;98436.94;;;6.48;100.00
61573;BME280;47465;43.094;12.434;2023-03-03T04:20:54;98441.41;;;6.43;100.00
61573;BME280;47465;43.094;12.434;2023-03-03T04:23:20;98414.44;;;6.22;100.00
61573;BME280;47465;43.094;12.434;2023-03-03T04:25:48;98444.06;;;6.41;100.00
61573;BME280;47465;43.094;12.434;2023-03-03T04:28:14;98436.25;;;6.35;100.00
61573;BME280;47465;43.094;12.434;2023-03-03T04:30:40;98430.16;;;6.30;100.00
61573;BME280;47465;43.094;12.434;2023-03-03T04:33:06;98408.41;;;6.14;100.00
61573;BME280;47465;43.094;12.434;2023-03-03T04:35:32;98443.25;;;6.37;100.00
61573;BME280;47465;43.094;12.434;2023-03-03T04:37:58;98414.41;;;6.24;100.00
61573;BME280;47465;43.094;12.434;2023-03-03T04:40:24;98425.75;;;6.32;100.00
61573;BME280;47465;43.094;12.434;2023-03-03T04:42:52;98445.00;;;6.38;100.00
61573;BME280;47465;43.094;12.434;2023-03-03T04:45:18;98437.97;;;6.37;100.00
61573;BME280;47465;43.094;12.434;2023-03-03T04:47:44;98426.69;;;6.26;100.00
61573;BME280;47465;43.094;12.434;2023-03-03T04:50:10;98412.81;;;6.13;100.00
61573;BME280;47465;43.094;12.434;2023-03-03T04:52:37;98428.56;;;6.20;100.00
61573;BME280;47465;43.094;12.434;2023-03-03T04:55:04;98451.16;;;6.37;100.00
61573;BME280;47465;43.094;12.434;2023-03-03T04:57:30;98418.06;;;6.15;100.00
61573;BME280;47465;43.094;12.434;2023-03-03T04:59:57;98435.53;;;6.25;100.00
61573;BME280;47465;43.094;12.434;2023-03-03T05:02:23;98413.66;;;6.15;100.00
61573;BME280;47465;43.094;12.434;2023-03-03T05:04:49;98445.25;;;6.23;100.00
61573;BME280;47465;43.094;12.434;2023-03-03T05:07:15;98412.09;;;6.02;100.00
61573;BME280;47465;43.094;12.434;2023-03-03T05:09:43;98426.94;;;6.11;100.00
61573;BME280;47465;43.094;12.434;2023-03-03T05:12:09;98435.59;;;6.21;100.00
61573;BME280;47465;43.094;12.434;2023-03-03T05:14:35;98411.19;;;6.05;100.00
61573;BME280;47465;43.094;12.434;2023-03-03T05:17:03;98427.63;;;6.22;100.00
61573;BME280;47465;43.094;12.434;2023-03-03T05:19:30;98452.00;;;6.43;100.00
61573;BME280;47465;43.094;12.434;2023-03-03T05:21:56;98425.72;;;6.33;100.00
61573;BME280;47465;43.094;12.434;2023-03-03T05:24:22;98428.41;;;6.30;100.00
61573;BME280;47465;43.094;12.434;2023-03-03T05:26:48;98447.47;;;6.51;100.00
61573;BME280;47465;43.094;12.434;2023-03-03T05:29:14;98452.50;;;6.66;100.00
61573;BME280;47465;43.094;12.434;2023-03-03T05:31:40;98438.53;;;6.58;100.00
61573;BME280;47465;43.094;12.434;2023-03-03T05:34:07;98435.94;;;6.55;100.00
61573;BME280;47465;43.094;12.434;2023-03-03T05:36:33;98436.03;;;6.49;100.00
61573;BME280;47465;43.094;12.434;2023-03-03T05:38:59;98444.94;;;6.43;100.00
61573;BME280;47465;43.094;12.434;2023-03-03T05:41:25;98455.22;;;6.62;100.00
61573;BME280;47465;43.094;12.434;2023-03-03T05:43:51;98463.16;;;6.60;100.00
61573;BME280;47465;43.094;12.434;2023-03-03T05:46:17;98443.22;;;6.39;100.00
61573;BME280;47465;43.094;12.434;2023-03-03T05:48:43;98431.03;;;6.30;100.00
61573;BME280;47465;43.094;12.434;2023-03-03T05:51:11;98445.78;;;6.45;100.00
61573;BME280;47465;43.094;12.434;2023-03-03T05:53:37;98463.25;;;6.52;100.00
61573;BME280;47465;43.094;12.434;2023-03-03T05:56:03;98456.31;;;6.47;100.00
61573;BME280;47465;43.094;12.434;2023-03-03T05:58:29;98472.97;;;6.50;100.00
61573;BME280;47465;43.094;12.434;2023-03-03T06:00:55;98443.22;;;6.41;100.00
61573;BME280;47465;43.094;12.434;2023-03-03T06:03:21;98470.41;;;6.47;100.00
61573;BME280;47465;43.094;12.434;2023-03-03T06:05:47;98474.78;;;6.48;100.00
61573;BME280;47465;43.094;12.434;2023-03-03T06:08:14;98459.09;;;6.37;100.00
61573;BME280;47465;43.094;12.434;2023-03-03T06:10:40;98476.44;;;6.55;100.00
61573;BME280;47465;43.094;12.434;2023-03-03T06:13:06;98482.56;;;6.57;100.00
61573;BME280;47465;43.094;12.434;2023-03-03T06:15:32;98478.16;;;6.58;100.00
61573;BME280;47465;43.094;12.434;2023-03-03T06:17:58;98489.47;;;6.66;100.00
61573;BME280;47465;43.094;12.434;2023-03-03T06:20:28;98479.94;;;6.56;100.00
61573;BME280;47465;43.094;12.434;2023-03-03T06:22:54;98486.03;;;6.61;100.00
61573;BME280;47465;43.094;12.434;2023-03-03T06:25:21;98477.47;;;6.47;100.00
61573;BME280;47465;43.094;12.434;2023-03-03T06:27:47;98479.28;;;6.42;100.00
61573;BME280;47465;43.094;12.434;2023-03-03T06:30:13;98494.88;;;6.58;100.00
61573;BME280;47465;43.094;12.434;2023-03-03T06:32:39;98504.44;;;6.67;100.00
61573;BME280;47465;43.094;12.434;2023-03-03T06:35:05;98493.91;;;6.64;100.00
61573;BME280;47465;43.094;12.434;2023-03-03T06:37:33;98485.13;;;6.64;100.00
61573;BME280;47465;43.094;12.434;2023-03-03T06:39:58;98471.94;;;6.62;100.00
61573;BME280;47465;43.094;12.434;2023-03-03T06:42:26;98475.19;;;6.76;100.00
61573;BME280;47465;43.094;12.434;2023-03-03T06:44:52;98483.97;;;6.78;100.00
61573;BME280;47465;43.094;12.434;2023-03-03T06:47:18;98498.72;;;6.93;100.00
61573;BME280;47465;43.094;12.434;2023-03-03T06:49:44;98486.53;;;6.85;100.00
61573;BME280;47465;43.094;12.434;2023-03-03T06:52:11;98506.69;;;6.92;100.00
61573;BME280;47465;43.094;12.434;2023-03-03T06:54:38;98474.19;;;6.85;100.00
61573;BME280;47465;43.094;12.434;2023-03-03T06:57:12;98483.88;;;6.86;100.00
61573;BME280;47465;43.094;12.434;2023-03-03T06:59:42;98496.00;;;6.98;100.00
61573;BME280;47465;43.094;12.434;2023-03-03T07:02:13;98491.72;;;6.91;100.00
61573;BME280;47465;43.094;12.434;2023-03-03T07:04:40;98502.44;;;6.82;100.00
61573;BME280;47465;43.094;12.434;2023-03-03T07:07:10;98495.38;;;6.82;100.00
61573;BME280;47465;43.094;12.434;2023-03-03T07:09:40;98506.44;;;7.07;100.00
61573;BME280;47465;43.094;12.434;2023-03-03T07:12:09;98494.25;;;6.97;100.00
61573;BME280;47465;43.094;12.434;2023-03-03T07:14:42;98497.38;;;7.20;100.00
61573;BME280;47465;43.094;12.434;2023-03-03T07:17:10;98491.44;;;7.06;100.00
61573;BME280;47465;43.094;12.434;2023-03-03T07:19:39;98504.47;;;7.18;100.00
61573;BME280;47465;43.094;12.434;2023-03-03T07:22:14;98502.69;;;7.19;100.00
61573;BME280;47465;43.094;12.434;2023-03-03T07:24:41;98487.66;;;7.23;100.00
61573;BME280;47465;43.094;12.434;2023-03-03T07:27:11;98520.06;;;7.32;100.00
61573;BME280;47465;43.094;12.434;2023-03-03T07:29:38;98493.09;;;7.13;100.00
61573;BME280;47465;43.094;12.434;2023-03-03T07:32:26;98495.47;;;7.29;100.00
61573;BME280;47465;43.094;12.434;2023-03-03T07:34:54;98505.16;;;7.30;100.00
61573;BME280;47465;43.094;12.434;2023-03-03T07:37:27;98513.06;;;7.30;100.00
61573;BME280;47465;43.094;12.434;2023-03-03T07:39:54;98514.63;;;7.41;100.00
61573;BME280;47465;43.094;12.434;2023-03-03T07:42:21;98482.13;;;7.35;99.29
61573;BME280;47465;43.094;12.434;2023-03-03T07:44:50;98507.25;;;7.59;99.17
61573;BME280;47465;43.094;12.434;2023-03-03T07:47:23;98482.44;;;7.65;97.62
61573;BME280;47465;43.094;12.434;2023-03-03T07:49:51;98485.84;;;7.70;96.72
61573;BME280;47465;43.094;12.434;2023-03-03T07:52:24;98479.44;;;7.81;95.81
61573;BME280;47465;43.094;12.434;2023-03-03T07:54:51;98511.13;;;7.86;96.00
61573;BME280;47465;43.094;12.434;2023-03-03T07:57:21;98508.25;;;7.97;95.91
61573;BME280;47465;43.094;12.434;2023-03-03T07:59:49;98490.03;;;7.81;95.83
61573;BME280;47465;43.094;12.434;2023-03-03T08:02:34;98509.28;;;7.90;96.22
61573;BME280;47465;43.094;12.434;2023-03-03T08:05:22;98501.16;;;7.97;95.73
61573;BME280;47465;43.094;12.434;2023-03-03T08:07:50;98527.59;;;8.00;96.02
61573;BME280;47465;43.094;12.434;2023-03-03T08:10:31;98515.25;;;7.99;96.57
61573;BME280;47465;43.094;12.434;2023-03-03T08:13:08;98514.47;;;7.96;96.00
61573;BME280;47465;43.094;12.434;2023-03-03T08:15:40;98501.38;;;7.88;96.24
61573;BME280;47465;43.094;12.434;2023-03-03T08:18:18;98514.41;;;7.97;94.90
61573;BME280;47465;43.094;12.434;2023-03-03T08:20:47;98516.97;;;8.02;95.29
61573;BME280;47465;43.094;12.434;2023-03-03T08:23:15;98534.59;;;8.05;95.67
61573;BME280;47465;43.094;12.434;2023-03-03T08:25:41;98525.13;;;7.91;95.94
61573;BME280;47465;43.094;12.434;2023-03-03T08:28:08;98547.94;;;7.98;96.48
61573;BME280;47465;43.094;12.434;2023-03-03T08:30:34;98516.28;;;7.92;96.20
61573;BME280;47465;43.094;12.434;2023-03-03T08:33:00;98531.16;;;7.98;95.89
61573;BME280;47465;43.094;12.434;2023-03-03T08:35:27;98537.06;;;8.12;95.76
61573;BME280;47465;43.094;12.434;2023-03-03T08:37:53;98535.88;;;8.26;94.81
61573;BME280;47465;43.094;12.434;2023-03-03T08:40:19;98540.03;;;8.40;94.39
61573;BME280;47465;43.094;12.434;2023-03-03T08:42:45;98527.78;;;8.74;92.91
61573;BME280;47465;43.094;12.434;2023-03-03T08:45:47;98531.63;;;8.98;89.28
61573;BME280;47465;43.094;12.434;2023-03-03T08:48:14;98530.09;;;9.23;88.62
61573;BME280;47465;43.094;12.434;2023-03-03T08:50:40;98546.50;;;9.03;89.27
61573;BME280;47465;43.094;12.434;2023-03-03T08:53:07;98553.91;;;9.27;88.53
61573;BME280;47465;43.094;12.434;2023-03-03T08:55:33;98528.34;;;9.24;86.79
61573;BME280;47465;43.094;12.434;2023-03-03T08:58:00;98521.84;;;9.34;86.49
61573;BME280;47465;43.094;12.434;2023-03-03T09:00:26;98536.78;;;9.38;86.64
61573;BME280;47465;43.094;12.434;2023-03-03T09:02:54;98524.22;;;9.45;85.13
61573;BME280;47465;43.094;12.434;2023-03-03T09:05:21;98541.47;;;9.63;84.78
61573;BME280;47465;43.094;12.434;2023-03-03T09:07:49;98529.06;;;9.63;85.29
61573;BME280;47465;43.094;12.434;2023-03-03T09:10:18;98551.75;;;9.75;83.94
61573;BME280;47465;43.094;12.434;2023-03-03T09:12:46;98539.81;;;9.90;84.05
61573;BME280;47465;43.094;12.434;2023-03-03T09:15:21;98546.94;;;9.57;86.00
61573;BME280;47465;43.094;12.434;2023-03-03T09:17:48;98539.47;;;9.71;85.21
61573;BME280;47465;43.094;12.434;2023-03-03T09:20:26;98524.78;;;9.58;84.28
61573;BME280;47465;43.094;12.434;2023-03-03T09:22:53;98546.50;;;9.74;84.79
61573;BME280;47465;43.094;12.434;2023-03-03T09:25:22;98534.16;;;9.71;83.98
61573;BME280;47465;43.094;12.434;2023-03-03T09:27:52;98541.09;;;10.08;81.87
61573;BME280;47465;43.094;12.434;2023-03-03T09:30:31;98552.59;;;10.08;80.75
61573;BME280;47465;43.094;12.434;2023-03-03T09:32:59;98548.63;;;9.92;82.57
61573;BME280;47465;43.094;12.434;2023-03-03T09:35:35;98534.06;;;10.05;81.84
61573;BME280;47465;43.094;12.434;2023-03-03T09:38:13;98545.91;;;10.25;80.90
61573;BME280;47465;43.094;12.434;2023-03-03T09:40:52;98554.47;;;10.36;80.63
61573;BME280;47465;43.094;12.434;2023-03-03T09:43:27;98559.44;;;10.48;81.67
61573;BME280;47465;43.094;12.434;2023-03-03T09:46:03;98535.03;;;10.64;79.99
61573;BME280;47465;43.094;12.434;2023-03-03T09:48:48;98553.19;;;10.78;78.86
61573;BME280;47465;43.094;12.434;2023-03-03T09:51:45;98534.16;;;10.92;76.19
61573;BME280;47465;43.094;12.434;2023-03-03T09:54:23;98526.19;;;11.18;77.88
61573;BME280;47465;43.094;12.434;2023-03-03T09:57:03;98539.81;;;11.09;75.89
61573;BME280;47465;43.094;12.434;2023-03-03T09:59:54;98516.88;;;11.05;76.90
61573;BME280;47465;43.094;12.434;2023-03-03T10:02:33;98541.84;;;11.54;75.64
61573;BME280;47465;43.094;12.434;2023-03-03T10:05:18;98543.31;;;11.63;74.57
61573;BME280;47465;43.094;12.434;2023-03-03T10:07:57;98525.63;;;11.35;75.00
61573;BME280;47465;43.094;12.434;2023-03-03T10:10:44;98554.53;;;11.46;74.18
61573;BME280;47465;43.094;12.434;2023-03-03T10:13:35;98555.06;;;11.30;75.06
61573;BME280;47465;43.094;12.434;2023-03-03T10:16:20;98540.25;;;10.95;74.90
61573;BME280;47465;43.094;12.434;2023-03-03T10:18:58;98543.78;;;10.96;76.45
61573;BME280;47465;43.094;12.434;2023-03-03T10:21:29;98543.19;;;10.86;77.05
61573;BME280;47465;43.094;12.434;2023-03-03T10:24:02;98550.97;;;10.64;78.27
61573;BME280;47465;43.094;12.434;2023-03-03T10:26:55;98553.56;;;10.67;78.50
61573;BME280;47465;43.094;12.434;2023-03-03T10:29:32;98543.47;;;10.48;78.21
61573;BME280;47465;43.094;12.434;2023-03-03T10:32:17;98540.28;;;10.37;79.51
61573;BME280;47465;43.094;12.434;2023-03-03T10:35:07;98549.94;;;10.40;79.08
61573;BME280;47465;43.094;12.434;2023-03-03T10:37:48;98577.31;;;10.43;79.86
61573;BME280;47465;43.094;12.434;2023-03-03T10:40:25;98553.06;;;10.23;81.00
61573;BME280;47465;43.094;12.434;2023-03-03T10:43:17;98562.66;;;10.28;80.59
61573;BME280;47465;43.094;12.434;2023-03-03T10:46:06;98556.72;;;10.19;79.91
61573;BME280;47465;43.094;12.434;2023-03-03T10:48:49;98558.25;;;9.96;80.50
61573;BME280;47465;43.094;12.434;2023-03-03T10:51:26;98567.38;;;9.86;80.71
61573;BME280;47465;43.094;12.434;2023-03-03T10:54:06;98583.00;;;9.65;82.07
61573;BME280;47465;43.094;12.434;2023-03-03T11:21:40;98520.91;;;10.62;76.42
61573;BME280;47465;43.094;12.434;2023-03-03T11:24:20;98519.56;;;11.03;75.11
61573;BME280;47465;43.094;12.434;2023-03-03T11:27:10;98517.06;;;11.25;74.18
61573;BME280;47465;43.094;12.434;2023-03-03T11:29:50;98519.31;;;11.38;72.70
61573;BME280;47465;43.094;12.434;2023-03-03T11:32:27;98496.88;;;10.93;73.71
61573;BME280;47465;43.094;12.434;2023-03-03T11:37:56;98517.38;;;11.43;70.56
61573;BME280;47465;43.094;12.434;2023-03-03T11:40:26;98477.03;;;11.54;71.10
61573;BME280;47465;43.094;12.434;2023-03-03T11:43:02;98478.88;;;11.77;69.79
61573;BME280;47465;43.094;12.434;2023-03-03T11:45:36;98472.53;;;11.56;70.27
61573;BME280;47465;43.094;12.434;2023-03-03T11:48:10;98476.00;;;11.58;70.85
61573;BME280;47465;43.094;12.434;2023-03-03T11:50:43;98493.34;;;11.69;68.54
61573;BME280;47465;43.094;12.434;2023-03-03T11:53:25;98481.50;;;11.78;70.43
61573;BME280;47465;43.094;12.434;2023-03-03T11:55:57;98475.94;;;11.09;69.91
61573;BME280;47465;43.094;12.434;2023-03-03T11:58:28;98475.75;;;11.65;68.97
61573;BME280;47465;43.094;12.434;2023-03-03T12:00:59;98469.91;;;12.04;68.56
61573;BME280;47465;43.094;12.434;2023-03-03T12:03:31;98490.00;;;12.13;66.15
61573;BME280;47465;43.094;12.434;2023-03-03T12:06:19;98496.66;;;12.01;68.42
61573;BME280;47465;43.094;12.434;2023-03-03T12:09:27;98467.28;;;12.03;67.59
61573;BME280;47465;43.094;12.434;2023-03-03T12:12:02;98482.03;;;11.88;66.64
61573;BME280;47465;43.094;12.434;2023-03-03T12:14:44;98501.41;;;11.93;65.93
61573;BME280;47465;43.094;12.434;2023-03-03T12:17:23;98473.25;;;11.36;67.15
61573;BME280;47465;43.094;12.434;2023-03-03T12:19:59;98457.78;;;10.95;70.96
61573;BME280;47465;43.094;12.434;2023-03-03T12:22:33;98450.28;;;10.80;72.21
61573;BME280;47465;43.094;12.434;2023-03-03T12:25:13;98479.38;;;11.13;70.87
61573;BME280;47465;43.094;12.434;2023-03-03T12:27:45;98461.81;;;11.57;69.49
61573;BME280;47465;43.094;12.434;2023-03-03T12:30:22;98478.78;;;11.80;68.79
61573;BME280;47465;43.094;12.434;2023-03-03T12:33:03;98474.09;;;12.33;66.87
61573;BME280;47465;43.094;12.434;2023-03-03T12:35:37;98483.00;;;12.56;65.74
61573;BME280;47465;43.094;12.434;2023-03-03T12:38:09;98478.56;;;12.33;67.23
61573;BME280;47465;43.094;12.434;2023-03-03T12:40:45;98467.09;;;12.07;67.32
61573;BME280;47465;43.094;12.434;2023-03-03T12:43:24;98461.09;;;12.02;66.27
61573;BME280;47465;43.094;12.434;2023-03-03T12:45:59;98448.31;;;11.88;68.07
61573;BME280;47465;43.094;12.434;2023-03-03T12:48:35;98466.66;;;11.46;66.94
61573;BME280;47465;43.094;12.434;2023-03-03T12:51:11;98474.25;;;11.58;68.62
61573;BME280;47465;43.094;12.434;2023-03-03T12:53:49;98478.66;;;11.58;67.36
61573;BME280;47465;43.094;12.434;2023-03-03T12:56:25;98469.94;;;11.54;68.67
61573;BME280;47465;43.094;12.434;2023-03-03T12:58:59;98467.41;;;11.24;68.81
61573;BME280;47465;43.094;12.434;2023-03-03T13:01:37;98472.56;;;11.04;70.57
61573;BME280;47465;43.094;12.434;2023-03-03T13:04:12;98454.22;;;11.21;69.22
61573;BME280;47465;43.094;12.434;2023-03-03T13:06:46;98446.41;;;11.42;68.56
61573;BME280;47465;43.094;12.434;2023-03-03T13:09:29;98464.75;;;11.75;66.20
61573;BME280;47465;43.094;12.434;2023-03-03T13:12:19;98472.25;;;11.38;67.88
61573;BME280;47465;43.094;12.434;2023-03-03T13:14:52;98452.28;;;11.51;66.70
61573;BME280;47465;43.094;12.434;2023-03-03T13:17:25;98485.66;;;11.85;66.39
61573;BME280;47465;43.094;12.434;2023-03-03T13:19:56;98451.34;;;11.78;66.60
61573;BME280;47465;43.094;12.434;2023-03-03T13:22:37;98443.94;;;12.09;65.51
61573;BME280;47465;43.094;12.434;2023-03-03T13:25:26;98452.47;;;12.19;65.15
61573;BME280;47465;43.094;12.434;2023-03-03T13:28:03;98444.34;;;12.22;63.59
61573;BME280;47465;43.094;12.434;2023-03-03T13:30:34;98443.47;;;11.98;65.40
61573;BME280;47465;43.094;12.434;2023-03-03T13:33:07;98443.66;;;11.68;65.86
61573;BME280;47465;43.094;12.434;2023-03-03T13:35:40;98454.47;;;11.64;67.14
61573;BME280;47465;43.094;12.434;2023-03-03T13:38:11;98453.41;;;11.69;67.13
61573;BME280;47465;43.094;12.434;2023-03-03T13:40:42;98454.53;;;11.62;66.59